sensor_id;sensor_type;location;lat;lon;timestamp;P1;durP1;ratioP1;P2;durP2;ratioP2
39104;SDS011;46464;51.154;13.812;2023-05-07T00:00:05;25.50;;;19.02;;
39104;SDS011;46464;51.154;13.812;2023-05-07T00:02:35;23.25;;;18.77;;
39104;SDS011;46464;51.154;13.812;2023-05-07T00:05:02;23.55;;;19.33;;
39104;SDS011;46464;51.154;13.812;2023-05-07T00:07:29;25.00;;;19.85;;
39104;SDS011;46464;51.154;13.812;2023-05-07T00:09:55;24.92;;;19.02;;
39104;SDS011;46464;51.154;13.812;2023-05-07T00:12:22;23.58;;;19.85;;
39104;SDS011;46464;51.154;13.812;2023-05-07T00:14:48;23.73;;;19.75;;
39104;SDS011;46464;51.154;13.812;2023-05-07T00:17:15;28.25;;;20.55;;
39104;SDS011;46464;51.154;13.812;2023-05-07T00:19:42;23.80;;;19.95;;
39104;SDS011;46464;51.154;13.812;2023-05-07T00:22:08;23.52;;;19.50;;
39104;SDS011;46464;51.154;13.812;2023-05-07T00:24:34;23.55;;;19.05;;
39104;SDS011;46464;51.154;13.812;2023-05-07T00:27:01;23.67;;;19.73;;
39104;SDS011;46464;51.154;13.812;2023-05-07T00:29:27;23.08;;;20.10;;
39104;SDS011;46464;51.154;13.812;2023-05-07T00:31:54;23.40;;;19.55;;
39104;SDS011;46464;51.154;13.812;2023-05-07T00:34:21;24.02;;;19.45;;
39104;SDS011;46464;51.154;13.812;2023-05-07T00:36:47;22.50;;;17.92;;
39104;SDS011;46464;51.154;13.812;2023-05-07T00:39:14;24.77;;;19.65;;
39104;SDS011;46464;51.154;13.812;2023-05-07T00:41:41;22.42;;;17.50;;
39104;SDS011;46464;51.154;13.812;2023-05-07T00:44:07;21.85;;;18.50;;
39104;SDS011;46464;51.154;13.812;2023-05-07T00:46:34;22.67;;;18.55;;
39104;SDS011;46464;51.154;13.812;2023-05-07T00:49:00;21.48;;;18.05;;
39104;SDS011;46464;51.154;13.812;2023-05-07T00:51:27;24.38;;;18.17;;
39104;SDS011;46464;51.154;13.812;2023-05-07T00:53:55;20.13;;;17.00;;
39104;SDS011;46464;51.154;13.812;2023-05-07T00:56:22;21.52;;;17.70;;
39104;SDS011;46464;51.154;13.812;2023-05-07T00:58:49;20.83;;;17.95;;
39104;SDS011;46464;51.154;13.812;2023-05-07T01:01:16;22.70;;;17.88;;
39104;SDS011;46464;51.154;13.812;2023-05-07T01:03:42;20.95;;;16.88;;
39104;SDS011;46464;51.154;13.812;2023-05-07T01:06:09;19.95;;;16.80;;
39104;SDS011;46464;51.154;13.812;2023-05-07T01:08:39;20.02;;;16.48;;
39104;SDS011;46464;51.154;13.812;2023-05-07T01:11:07;19.95;;;17.33;;
39104;SDS011;46464;51.154;13.812;2023-05-07T01:13:34;21.27;;;17.90;;
39104;SDS011;46464;51.154;13.812;2023-05-07T01:16:02;21.70;;;17.67;;
39104;SDS011;46464;51.154;13.812;2023-05-07T01:20:58;21.67;;;17.08;;
39104;SDS011;46464;51.154;13.812;2023-05-07T01:23:27;21.77;;;17.92;;
39104;SDS011;46464;51.154;13.812;2023-05-07T01:25:54;20.13;;;17.38;;
39104;SDS011;46464;51.154;13.812;2023-05-07T01:28:21;24.27;;;18.30;;
39104;SDS011;46464;51.154;13.812;2023-05-07T01:30:52;22.83;;;18.27;;
39104;SDS011;46464;51.154;13.812;2023-05-07T01:33:21;23.25;;;19.02;;
39104;SDS011;46464;51.154;13.812;2023-05-07T01:35:51;21.13;;;17.75;;
39104;SDS011;46464;51.154;13.812;2023-05-07T01:38:20;25.63;;;19.48;;
39104;SDS011;46464;51.154;13.812;2023-05-07T01:40:49;22.20;;;17.85;;
39104;SDS011;46464;51.154;13.812;2023-05-07T01:45:43;24.85;;;18.60;;
39104;SDS011;46464;51.154;13.812;2023-05-07T01:48:11;21.13;;;18.45;;
39104;SDS011;46464;51.154;13.812;2023-05-07T01:50:38;19.90;;;16.70;;
39104;SDS011;46464;51.154;13.812;2023-05-07T01:53:06;20.50;;;16.95;;
39104;SDS011;46464;51.154;13.812;2023-05-07T01:57:59;20.92;;;16.67;;
39104;SDS011;46464;51.154;13.812;2023-05-07T02:00:25;21.27;;;16.13;;
39104;SDS011;46464;51.154;13.812;2023-05-07T02:02:52;21.42;;;16.33;;
39104;SDS011;46464;51.154;13.812;2023-05-07T02:05:19;20.45;;;16.20;;
39104;SDS011;46464;51.154;13.812;2023-05-07T02:07:45;18.63;;;15.13;;
39104;SDS011;46464;51.154;13.812;2023-05-07T02:10:12;19.10;;;16.10;;
39104;SDS011;46464;51.154;13.812;2023-05-07T02:12:38;16.77;;;14.75;;
39104;SDS011;46464;51.154;13.812;2023-05-07T02:15:05;19.42;;;17.33;;
39104;SDS011;46464;51.154;13.812;2023-05-07T02:22:26;19.00;;;15.95;;
39104;SDS011;46464;51.154;13.812;2023-05-07T02:24:52;17.40;;;14.95;;
39104;SDS011;46464;51.154;13.812;2023-05-07T02:27:18;20.02;;;15.50;;
39104;SDS011;46464;51.154;13.812;2023-05-07T02:29:45;18.90;;;16.13;;
39104;SDS011;46464;51.154;13.812;2023-05-07T02:32:12;18.05;;;15.55;;
39104;SDS011;46464;51.154;13.812;2023-05-07T02:34:38;20.02;;;17.00;;
39104;SDS011;46464;51.154;13.812;2023-05-07T02:37:05;21.58;;;17.27;;
39104;SDS011;46464;51.154;13.812;2023-05-07T02:39:31;23.20;;;18.75;;
39104;SDS011;46464;51.154;13.812;2023-05-07T02:41:58;21.30;;;17.58;;
39104;SDS011;46464;51.154;13.812;2023-05-07T02:44:24;24.63;;;17.40;;
39104;SDS011;46464;51.154;13.812;2023-05-07T02:46:51;23.67;;;16.70;;
39104;SDS011;46464;51.154;13.812;2023-05-07T02:49:17;19.40;;;16.33;;
39104;SDS011;46464;51.154;13.812;2023-05-07T02:51:44;21.10;;;17.40;;
39104;SDS011;46464;51.154;13.812;2023-05-07T02:54:10;22.00;;;17.92;;
39104;SDS011;46464;51.154;13.812;2023-05-07T02:56:37;19.17;;;16.23;;
39104;SDS011;46464;51.154;13.812;2023-05-07T02:59:03;21.02;;;15.95;;
39104;SDS011;46464;51.154;13.812;2023-05-07T03:01:29;20.25;;;16.02;;
39104;SDS011;46464;51.154;13.812;2023-05-07T03:03:56;20.90;;;16.67;;
39104;SDS011;46464;51.154;13.812;2023-05-07T03:06:22;23.92;;;17.75;;
39104;SDS011;46464;51.154;13.812;2023-05-07T03:08:49;23.13;;;17.85;;
39104;SDS011;46464;51.154;13.812;2023-05-07T03:11:15;23.65;;;18.00;;
39104;SDS011;46464;51.154;13.812;2023-05-07T03:13:42;20.08;;;16.92;;
39104;SDS011;46464;51.154;13.812;2023-05-07T03:16:08;24.02;;;18.58;;
39104;SDS011;46464;51.154;13.812;2023-05-07T03:18:35;25.73;;;19.65;;
39104;SDS011;46464;51.154;13.812;2023-05-07T03:21:01;23.40;;;18.08;;
39104;SDS011;46464;51.154;13.812;2023-05-07T03:23:28;23.13;;;18.83;;
39104;SDS011;46464;51.154;13.812;2023-05-07T03:25:54;24.65;;;18.90;;
39104;SDS011;46464;51.154;13.812;2023-05-07T03:28:20;23.60;;;18.67;;
39104;SDS011;46464;51.154;13.812;2023-05-07T03:30:47;21.77;;;17.70;;
39104;SDS011;46464;51.154;13.812;2023-05-07T03:33:13;24.38;;;19.38;;
39104;SDS011;46464;51.154;13.812;2023-05-07T03:35:40;22.98;;;17.88;;
39104;SDS011;46464;51.154;13.812;2023-05-07T03:38:06;22.27;;;17.52;;
39104;SDS011;46464;51.154;13.812;2023-05-07T03:40:33;20.63;;;16.98;;
39104;SDS011;46464;51.154;13.812;2023-05-07T03:42:59;20.90;;;17.10;;
39104;SDS011;46464;51.154;13.812;2023-05-07T03:47:53;25.85;;;17.67;;
39104;SDS011;46464;51.154;13.812;2023-05-07T03:50:19;22.42;;;17.13;;
39104;SDS011;46464;51.154;13.812;2023-05-07T03:52:46;25.73;;;18.27;;
39104;SDS011;46464;51.154;13.812;2023-05-07T03:55:12;24.48;;;19.00;;
39104;SDS011;46464;51.154;13.812;2023-05-07T03:57:38;25.55;;;18.00;;
39104;SDS011;46464;51.154;13.812;2023-05-07T04:00:05;23.38;;;17.85;;
39104;SDS011;46464;51.154;13.812;2023-05-07T04:02:32;27.67;;;19.85;;
39104;SDS011;46464;51.154;13.812;2023-05-07T04:04:59;24.33;;;18.45;;
39104;SDS011;46464;51.154;13.812;2023-05-07T04:07:26;23.33;;;18.67;;
39104;SDS011;46464;51.154;13.812;2023-05-07T04:09:52;23.65;;;18.40;;
39104;SDS011;46464;51.154;13.812;2023-05-07T04:12:18;26.08;;;18.85;;
39104;SDS011;46464;51.154;13.812;2023-05-07T04:14:45;24.35;;;18.08;;
39104;SDS011;46464;51.154;13.812;2023-05-07T04:17:11;23.83;;;17.95;;
39104;SDS011;46464;51.154;13.812;2023-05-07T04:19:38;24.60;;;19.02;;
39104;SDS011;46464;51.154;13.812;2023-05-07T04:22:04;22.95;;;17.90;;
39104;SDS011;46464;51.154;13.812;2023-05-07T04:24:31;22.25;;;17.40;;
39104;SDS011;46464;51.154;13.812;2023-05-07T04:26:59;25.75;;;18.60;;
39104;SDS011;46464;51.154;13.812;2023-05-07T04:29:25;21.55;;;17.52;;
39104;SDS011;46464;51.154;13.812;2023-05-07T04:31:52;23.52;;;17.25;;
39104;SDS011;46464;51.154;13.812;2023-05-07T04:34:18;22.15;;;17.70;;
39104;SDS011;46464;51.154;13.812;2023-05-07T04:36:45;21.38;;;16.63;;
39104;SDS011;46464;51.154;13.812;2023-05-07T04:41:38;20.67;;;15.35;;
39104;SDS011;46464;51.154;13.812;2023-05-07T04:44:05;22.92;;;17.90;;
39104;SDS011;46464;51.154;13.812;2023-05-07T04:46:32;21.15;;;15.70;;
39104;SDS011;46464;51.154;13.812;2023-05-07T04:48:58;22.33;;;17.13;;
39104;SDS011;46464;51.154;13.812;2023-05-07T04:51:25;21.70;;;15.60;;
39104;SDS011;46464;51.154;13.812;2023-05-07T04:53:51;19.85;;;15.45;;
39104;SDS011;46464;51.154;13.812;2023-05-07T04:56:17;22.20;;;16.95;;
39104;SDS011;46464;51.154;13.812;2023-05-07T04:58:44;22.17;;;15.43;;
39104;SDS011;46464;51.154;13.812;2023-05-07T05:01:10;20.63;;;16.58;;
39104;SDS011;46464;51.154;13.812;2023-05-07T05:03:37;22.08;;;16.50;;
39104;SDS011;46464;51.154;13.812;2023-05-07T05:06:05;23.58;;;16.25;;
39104;SDS011;46464;51.154;13.812;2023-05-07T05:08:32;21.35;;;15.35;;
39104;SDS011;46464;51.154;13.812;2023-05-07T05:10:59;20.98;;;16.30;;
39104;SDS011;46464;51.154;13.812;2023-05-07T05:13:27;20.02;;;15.45;;
39104;SDS011;46464;51.154;13.812;2023-05-07T05:15:53;21.30;;;15.93;;
39104;SDS011;46464;51.154;13.812;2023-05-07T05:18:20;18.85;;;14.30;;
39104;SDS011;46464;51.154;13.812;2023-05-07T05:20:46;19.05;;;14.35;;
39104;SDS011;46464;51.154;13.812;2023-05-07T05:23:13;18.20;;;14.15;;
39104;SDS011;46464;51.154;13.812;2023-05-07T05:25:39;19.45;;;15.20;;
39104;SDS011;46464;51.154;13.812;2023-05-07T05:28:06;18.02;;;13.88;;
39104;SDS011;46464;51.154;13.812;2023-05-07T05:30:32;17.77;;;13.02;;
39104;SDS011;46464;51.154;13.812;2023-05-07T05:32:59;17.02;;;12.65;;
39104;SDS011;46464;51.154;13.812;2023-05-07T05:35:26;16.85;;;13.77;;
39104;SDS011;46464;51.154;13.812;2023-05-07T05:37:52;18.50;;;14.32;;
39104;SDS011;46464;51.154;13.812;2023-05-07T05:40:19;17.05;;;13.15;;
39104;SDS011;46464;51.154;13.812;2023-05-07T05:42:46;16.50;;;13.70;;
39104;SDS011;46464;51.154;13.812;2023-05-07T05:45:12;16.90;;;13.70;;
39104;SDS011;46464;51.154;13.812;2023-05-07T05:47:39;19.20;;;12.90;;
39104;SDS011;46464;51.154;13.812;2023-05-07T05:50:07;16.95;;;13.30;;
39104;SDS011;46464;51.154;13.812;2023-05-07T05:52:34;17.17;;;13.73;;
39104;SDS011;46464;51.154;13.812;2023-05-07T05:55:00;15.80;;;12.65;;
39104;SDS011;46464;51.154;13.812;2023-05-07T05:57:26;14.82;;;12.18;;
39104;SDS011;46464;51.154;13.812;2023-05-07T05:59:54;14.10;;;12.27;;
39104;SDS011;46464;51.154;13.812;2023-05-07T06:02:21;15.35;;;11.70;;
39104;SDS011;46464;51.154;13.812;2023-05-07T06:04:48;14.57;;;11.38;;
39104;SDS011;46464;51.154;13.812;2023-05-07T06:07:14;18.30;;;11.73;;
39104;SDS011;46464;51.154;13.812;2023-05-07T06:09:40;14.63;;;11.98;;
39104;SDS011;46464;51.154;13.812;2023-05-07T06:12:07;14.32;;;11.55;;
39104;SDS011;46464;51.154;13.812;2023-05-07T06:14:33;13.00;;;11.60;;
39104;SDS011;46464;51.154;13.812;2023-05-07T06:17:00;19.23;;;12.25;;
39104;SDS011;46464;51.154;13.812;2023-05-07T06:19:26;15.60;;;11.50;;
39104;SDS011;46464;51.154;13.812;2023-05-07T06:21:54;14.13;;;11.48;;
39104;SDS011;46464;51.154;13.812;2023-05-07T06:24:22;13.50;;;11.30;;
39104;SDS011;46464;51.154;13.812;2023-05-07T06:26:49;15.13;;;11.10;;
39104;SDS011;46464;51.154;13.812;2023-05-07T06:29:15;12.75;;;10.88;;
39104;SDS011;46464;51.154;13.812;2023-05-07T06:31:41;13.43;;;10.57;;
39104;SDS011;46464;51.154;13.812;2023-05-07T06:34:08;12.63;;;10.57;;
39104;SDS011;46464;51.154;13.812;2023-05-07T06:36:35;11.85;;;10.27;;
39104;SDS011;46464;51.154;13.812;2023-05-07T06:39:01;11.30;;;9.30;;
39104;SDS011;46464;51.154;13.812;2023-05-07T06:41:28;12.00;;;9.98;;
39104;SDS011;46464;51.154;13.812;2023-05-07T06:43:54;13.02;;;9.63;;
39104;SDS011;46464;51.154;13.812;2023-05-07T06:46:21;11.85;;;9.15;;
39104;SDS011;46464;51.154;13.812;2023-05-07T06:48:47;10.57;;;8.63;;
39104;SDS011;46464;51.154;13.812;2023-05-07T06:51:14;11.05;;;8.30;;
39104;SDS011;46464;51.154;13.812;2023-05-07T06:53:40;9.07;;;6.70;;
39104;SDS011;46464;51.154;13.812;2023-05-07T06:56:07;7.35;;;6.55;;
39104;SDS011;46464;51.154;13.812;2023-05-07T06:58:33;8.05;;;6.22;;
39104;SDS011;46464;51.154;13.812;2023-05-07T07:01:00;8.35;;;6.35;;
39104;SDS011;46464;51.154;13.812;2023-05-07T07:03:26;6.82;;;6.13;;
39104;SDS011;46464;51.154;13.812;2023-05-07T07:05:53;7.72;;;5.47;;
39104;SDS011;46464;51.154;13.812;2023-05-07T07:08:21;6.28;;;5.25;;
39104;SDS011;46464;51.154;13.812;2023-05-07T07:10:48;7.78;;;5.45;;
39104;SDS011;46464;51.154;13.812;2023-05-07T07:13:14;6.78;;;5.00;;
39104;SDS011;46464;51.154;13.812;2023-05-07T07:15:41;7.18;;;4.45;;
39104;SDS011;46464;51.154;13.812;2023-05-07T07:18:08;5.40;;;4.30;;
39104;SDS011;46464;51.154;13.812;2023-05-07T07:20:34;4.97;;;4.05;;
39104;SDS011;46464;51.154;13.812;2023-05-07T07:23:01;4.60;;;3.80;;
39104;SDS011;46464;51.154;13.812;2023-05-07T07:25:27;5.10;;;4.07;;
39104;SDS011;46464;51.154;13.812;2023-05-07T07:27:53;5.65;;;4.47;;
39104;SDS011;46464;51.154;13.812;2023-05-07T07:30:20;5.20;;;4.40;;
39104;SDS011;46464;51.154;13.812;2023-05-07T07:32:46;6.18;;;4.45;;
39104;SDS011;46464;51.154;13.812;2023-05-07T07:35:13;5.60;;;4.40;;
39104;SDS011;46464;51.154;13.812;2023-05-07T07:37:39;5.65;;;4.95;;
39104;SDS011;46464;51.154;13.812;2023-05-07T07:40:06;4.57;;;4.13;;
39104;SDS011;46464;51.154;13.812;2023-05-07T07:44:59;4.95;;;3.85;;
39104;SDS011;46464;51.154;13.812;2023-05-07T07:47:26;5.30;;;4.30;;
39104;SDS011;46464;51.154;13.812;2023-05-07T07:49:52;5.43;;;4.60;;
39104;SDS011;46464;51.154;13.812;2023-05-07T07:52:18;6.45;;;4.95;;
39104;SDS011;46464;51.154;13.812;2023-05-07T07:57:12;5.75;;;4.82;;
39104;SDS011;46464;51.154;13.812;2023-05-07T07:59:39;5.60;;;4.82;;
39104;SDS011;46464;51.154;13.812;2023-05-07T08:02:05;5.10;;;4.55;;
39104;SDS011;46464;51.154;13.812;2023-05-07T08:09:25;8.75;;;5.68;;
39104;SDS011;46464;51.154;13.812;2023-05-07T08:11:52;6.10;;;5.40;;
39104;SDS011;46464;51.154;13.812;2023-05-07T08:14:19;7.53;;;6.20;;
39104;SDS011;46464;51.154;13.812;2023-05-07T08:16:45;7.78;;;6.97;;
39104;SDS011;46464;51.154;13.812;2023-05-07T08:19:12;7.07;;;6.38;;
39104;SDS011;46464;51.154;13.812;2023-05-07T08:21:38;9.60;;;7.35;;
39104;SDS011;46464;51.154;13.812;2023-05-07T08:24:06;8.73;;;7.82;;
39104;SDS011;46464;51.154;13.812;2023-05-07T08:26:32;9.13;;;8.05;;
39104;SDS011;46464;51.154;13.812;2023-05-07T08:28:59;10.50;;;8.73;;
39104;SDS011;46464;51.154;13.812;2023-05-07T08:31:25;10.23;;;9.15;;
39104;SDS011;46464;51.154;13.812;2023-05-07T08:33:52;10.75;;;8.75;;
39104;SDS011;46464;51.154;13.812;2023-05-07T08:36:18;11.32;;;9.52;;
39104;SDS011;46464;51.154;13.812;2023-05-07T08:41:11;10.55;;;8.77;;
39104;SDS011;46464;51.154;13.812;2023-05-07T08:43:38;10.68;;;9.02;;
39104;SDS011;46464;51.154;13.812;2023-05-07T08:46:08;11.88;;;9.10;;
39104;SDS011;46464;51.154;13.812;2023-05-07T08:48:36;10.85;;;9.23;;
39104;SDS011;46464;51.154;13.812;2023-05-07T08:51:03;10.88;;;9.18;;
39104;SDS011;46464;51.154;13.812;2023-05-07T08:53:29;11.15;;;9.07;;
39104;SDS011;46464;51.154;13.812;2023-05-07T08:55:56;9.90;;;8.40;;
39104;SDS011;46464;51.154;13.812;2023-05-07T08:58:22;10.52;;;9.00;;
39104;SDS011;46464;51.154;13.812;2023-05-07T09:00:49;11.30;;;9.23;;
39104;SDS011;46464;51.154;13.812;2023-05-07T09:03:18;11.15;;;9.02;;
39104;SDS011;46464;51.154;13.812;2023-05-07T09:05:45;10.43;;;9.13;;
39104;SDS011;46464;51.154;13.812;2023-05-07T09:08:14;9.93;;;8.45;;
39104;SDS011;46464;51.154;13.812;2023-05-07T09:10:41;9.40;;;8.05;;
39104;SDS011;46464;51.154;13.812;2023-05-07T09:13:07;10.52;;;9.40;;
39104;SDS011;46464;51.154;13.812;2023-05-07T09:15:34;10.85;;;9.02;;
39104;SDS011;46464;51.154;13.812;2023-05-07T09:20:29;9.73;;;8.18;;
39104;SDS011;46464;51.154;13.812;2023-05-07T09:22:56;9.68;;;8.07;;
39104;SDS011;46464;51.154;13.812;2023-05-07T09:25:30;9.60;;;8.60;;
39104;SDS011;46464;51.154;13.812;2023-05-07T09:27:58;11.05;;;8.32;;
39104;SDS011;46464;51.154;13.812;2023-05-07T09:30:29;9.35;;;8.23;;
39104;SDS011;46464;51.154;13.812;2023-05-07T09:33:00;10.18;;;8.18;;
39104;SDS011;46464;51.154;13.812;2023-05-07T09:35:28;9.57;;;8.55;;
39104;SDS011;46464;51.154;13.812;2023-05-07T09:37:56;12.32;;;10.02;;
39104;SDS011;46464;51.154;13.812;2023-05-07T09:40:27;10.45;;;8.73;;
39104;SDS011;46464;51.154;13.812;2023-05-07T09:42:55;10.93;;;9.43;;
39104;SDS011;46464;51.154;13.812;2023-05-07T09:45:26;10.93;;;9.80;;
39104;SDS011;46464;51.154;13.812;2023-05-07T09:47:56;11.70;;;9.70;;
39104;SDS011;46464;51.154;13.812;2023-05-07T09:50:29;11.70;;;9.38;;
39104;SDS011;46464;51.154;13.812;2023-05-07T09:52:58;9.32;;;8.35;;
39104;SDS011;46464;51.154;13.812;2023-05-07T09:55:24;9.40;;;8.32;;
39104;SDS011;46464;51.154;13.812;2023-05-07T09:57:52;9.07;;;8.18;;
39104;SDS011;46464;51.154;13.812;2023-05-07T10:00:20;9.63;;;8.70;;
39104;SDS011;46464;51.154;13.812;2023-05-07T10:02:49;10.55;;;8.82;;
39104;SDS011;46464;51.154;13.812;2023-05-07T10:05:19;10.32;;;9.23;;
39104;SDS011;46464;51.154;13.812;2023-05-07T10:07:46;8.77;;;7.72;;
39104;SDS011;46464;51.154;13.812;2023-05-07T10:10:14;8.45;;;7.55;;
39104;SDS011;46464;51.154;13.812;2023-05-07T10:12:43;10.45;;;8.75;;
39104;SDS011;46464;51.154;13.812;2023-05-07T10:15:11;9.63;;;7.97;;
39104;SDS011;46464;51.154;13.812;2023-05-07T10:17:39;9.18;;;8.25;;
39104;SDS011;46464;51.154;13.812;2023-05-07T10:20:06;10.07;;;8.10;;
39104;SDS011;46464;51.154;13.812;2023-05-07T10:22:37;10.65;;;8.93;;
39104;SDS011;46464;51.154;13.812;2023-05-07T10:25:06;8.85;;;7.93;;
39104;SDS011;46464;51.154;13.812;2023-05-07T10:27:40;9.10;;;7.97;;
39104;SDS011;46464;51.154;13.812;2023-05-07T10:32:56;8.75;;;7.82;;
39104;SDS011;46464;51.154;13.812;2023-05-07T10:35:41;11.25;;;8.77;;
39104;SDS011;46464;51.154;13.812;2023-05-07T10:38:08;9.35;;;8.30;;
39104;SDS011;46464;51.154;13.812;2023-05-07T10:43:03;9.65;;;8.63;;
39104;SDS011;46464;51.154;13.812;2023-05-07T10:45:35;10.40;;;8.85;;
39104;SDS011;46464;51.154;13.812;2023-05-07T10:51:17;9.13;;;8.23;;
39104;SDS011;46464;51.154;13.812;2023-05-07T10:53:48;8.27;;;7.25;;
39104;SDS011;46464;51.154;13.812;2023-05-07T10:58:44;7.78;;;6.75;;
39104;SDS011;46464;51.154;13.812;2023-05-07T11:01:10;7.93;;;7.13;;
39104;SDS011;46464;51.154;13.812;2023-05-07T11:06:41;8.13;;;6.30;;
39104;SDS011;46464;51.154;13.812;2023-05-07T11:09:07;6.70;;;6.05;;
39104;SDS011;46464;51.154;13.812;2023-05-07T11:17:21;8.82;;;7.50;;
39104;SDS011;46464;51.154;13.812;2023-05-07T11:19:54;7.68;;;6.88;;
39104;SDS011;46464;51.154;13.812;2023-05-07T11:25:02;8.07;;;6.97;;
39104;SDS011;46464;51.154;13.812;2023-05-07T11:27:29;7.15;;;6.45;;
39104;SDS011;46464;51.154;13.812;2023-05-07T11:29:56;7.60;;;6.78;;
39104;SDS011;46464;51.154;13.812;2023-05-07T11:32:23;7.63;;;6.15;;
39104;SDS011;46464;51.154;13.812;2023-05-07T11:34:51;7.35;;;6.15;;
39104;SDS011;46464;51.154;13.812;2023-05-07T11:37:19;7.07;;;6.07;;
39104;SDS011;46464;51.154;13.812;2023-05-07T11:39:46;6.53;;;5.82;;
39104;SDS011;46464;51.154;13.812;2023-05-07T11:42:29;7.30;;;5.97;;
39104;SDS011;46464;51.154;13.812;2023-05-07T11:45:00;7.20;;;6.32;;
39104;SDS011;46464;51.154;13.812;2023-05-07T11:49:56;7.10;;;6.38;;
39104;SDS011;46464;51.154;13.812;2023-05-07T11:52:23;8.45;;;5.75;;
39104;SDS011;46464;51.154;13.812;2023-05-07T11:54:51;7.40;;;5.70;;
39104;SDS011;46464;51.154;13.812;2023-05-07T11:57:19;7.05;;;6.35;;
39104;SDS011;46464;51.154;13.812;2023-05-07T11:59:46;7.93;;;6.20;;
39104;SDS011;46464;51.154;13.812;2023-05-07T12:02:15;7.13;;;6.43;;
39104;SDS011;46464;51.154;13.812;2023-05-07T12:04:43;8.48;;;6.38;;
39104;SDS011;46464;51.154;13.812;2023-05-07T12:07:11;7.05;;;5.93;;
39104;SDS011;46464;51.154;13.812;2023-05-07T12:09:42;7.20;;;6.10;;
39104;SDS011;46464;51.154;13.812;2023-05-07T12:12:10;6.47;;;5.57;;
39104;SDS011;46464;51.154;13.812;2023-05-07T12:14:37;5.88;;;5.28;;
39104;SDS011;46464;51.154;13.812;2023-05-07T12:17:07;6.45;;;5.50;;
39104;SDS011;46464;51.154;13.812;2023-05-07T12:19:35;5.85;;;5.22;;
39104;SDS011;46464;51.154;13.812;2023-05-07T12:22:02;6.80;;;6.07;;
39104;SDS011;46464;51.154;13.812;2023-05-07T12:24:41;6.65;;;5.93;;
39104;SDS011;46464;51.154;13.812;2023-05-07T12:27:14;8.73;;;6.70;;
39104;SDS011;46464;51.154;13.812;2023-05-07T12:29:46;7.43;;;6.70;;
39104;SDS011;46464;51.154;13.812;2023-05-07T12:32:16;7.25;;;6.55;;
39104;SDS011;46464;51.154;13.812;2023-05-07T12:34:44;6.72;;;6.03;;
39104;SDS011;46464;51.154;13.812;2023-05-07T12:37:11;7.03;;;6.32;;
39104;SDS011;46464;51.154;13.812;2023-05-07T12:39:47;7.00;;;6.20;;
39104;SDS011;46464;51.154;13.812;2023-05-07T12:42:15;6.30;;;5.45;;
39104;SDS011;46464;51.154;13.812;2023-05-07T12:44:45;6.13;;;5.53;;
39104;SDS011;46464;51.154;13.812;2023-05-07T12:47:12;6.35;;;5.68;;
39104;SDS011;46464;51.154;13.812;2023-05-07T12:49:38;5.90;;;5.05;;
39104;SDS011;46464;51.154;13.812;2023-05-07T12:52:06;5.55;;;4.82;;
39104;SDS011;46464;51.154;13.812;2023-05-07T12:54:33;5.82;;;5.03;;
39104;SDS011;46464;51.154;13.812;2023-05-07T12:57:01;5.43;;;4.75;;
39104;SDS011;46464;51.154;13.812;2023-05-07T12:59:41;6.70;;;4.50;;
39104;SDS011;46464;51.154;13.812;2023-05-07T13:02:08;5.22;;;4.72;;
39104;SDS011;46464;51.154;13.812;2023-05-07T13:04:35;5.35;;;4.70;;
39104;SDS011;46464;51.154;13.812;2023-05-07T13:07:02;4.97;;;4.47;;
39104;SDS011;46464;51.154;13.812;2023-05-07T13:09:28;5.25;;;4.75;;
39104;SDS011;46464;51.154;13.812;2023-05-07T13:11:55;4.68;;;4.00;;
39104;SDS011;46464;51.154;13.812;2023-05-07T13:14:21;5.70;;;4.30;;
39104;SDS011;46464;51.154;13.812;2023-05-07T13:16:48;5.65;;;4.97;;
39104;SDS011;46464;51.154;13.812;2023-05-07T13:19:15;5.90;;;4.78;;
39104;SDS011;46464;51.154;13.812;2023-05-07T13:21:42;4.82;;;4.32;;
39104;SDS011;46464;51.154;13.812;2023-05-07T13:24:08;5.65;;;3.80;;
39104;SDS011;46464;51.154;13.812;2023-05-07T13:26:35;5.22;;;3.83;;
39104;SDS011;46464;51.154;13.812;2023-05-07T13:29:01;6.30;;;4.70;;
39104;SDS011;46464;51.154;13.812;2023-05-07T13:31:27;5.80;;;4.82;;
39104;SDS011;46464;51.154;13.812;2023-05-07T13:33:54;6.18;;;5.57;;
39104;SDS011;46464;51.154;13.812;2023-05-07T13:36:22;5.28;;;4.70;;
39104;SDS011;46464;51.154;13.812;2023-05-07T13:38:48;5.82;;;4.75;;
39104;SDS011;46464;51.154;13.812;2023-05-07T13:43:42;5.18;;;4.57;;
39104;SDS011;46464;51.154;13.812;2023-05-07T13:46:08;5.28;;;4.75;;
39104;SDS011;46464;51.154;13.812;2023-05-07T13:48:35;6.07;;;4.60;;
39104;SDS011;46464;51.154;13.812;2023-05-07T13:51:02;6.18;;;4.82;;
39104;SDS011;46464;51.154;13.812;2023-05-07T13:53:28;5.70;;;4.65;;
39104;SDS011;46464;51.154;13.812;2023-05-07T13:55:55;6.43;;;4.35;;
39104;SDS011;46464;51.154;13.812;2023-05-07T13:58:21;6.90;;;4.90;;
39104;SDS011;46464;51.154;13.812;2023-05-07T14:00:47;5.75;;;4.15;;
39104;SDS011;46464;51.154;13.812;2023-05-07T14:03:14;4.75;;;4.25;;
39104;SDS011;46464;51.154;13.812;2023-05-07T14:05:41;5.32;;;4.20;;
39104;SDS011;46464;51.154;13.812;2023-05-07T14:08:08;5.43;;;3.90;;
39104;SDS011;46464;51.154;13.812;2023-05-07T14:10:34;5.47;;;4.05;;
39104;SDS011;46464;51.154;13.812;2023-05-07T14:13:01;4.60;;;4.07;;
39104;SDS011;46464;51.154;13.812;2023-05-07T14:15:27;5.53;;;4.53;;
39104;SDS011;46464;51.154;13.812;2023-05-07T14:17:54;5.25;;;4.28;;
39104;SDS011;46464;51.154;13.812;2023-05-07T14:20:21;5.00;;;4.50;;
39104;SDS011;46464;51.154;13.812;2023-05-07T14:22:47;4.80;;;4.00;;
39104;SDS011;46464;51.154;13.812;2023-05-07T14:25:14;5.10;;;4.60;;
39104;SDS011;46464;51.154;13.812;2023-05-07T14:27:40;4.70;;;4.15;;
39104;SDS011;46464;51.154;13.812;2023-05-07T14:30:07;7.70;;;4.47;;
39104;SDS011;46464;51.154;13.812;2023-05-07T14:32:34;4.22;;;3.78;;
39104;SDS011;46464;51.154;13.812;2023-05-07T14:35:00;6.28;;;4.70;;
39104;SDS011;46464;51.154;13.812;2023-05-07T14:37:27;7.13;;;5.00;;
39104;SDS011;46464;51.154;13.812;2023-05-07T14:42:20;7.38;;;4.90;;
39104;SDS011;46464;51.154;13.812;2023-05-07T14:44:47;6.78;;;5.32;;
39104;SDS011;46464;51.154;13.812;2023-05-07T14:47:14;9.23;;;6.00;;
39104;SDS011;46464;51.154;13.812;2023-05-07T14:49:44;5.88;;;5.20;;
39104;SDS011;46464;51.154;13.812;2023-05-07T14:52:11;7.50;;;5.05;;
39104;SDS011;46464;51.154;13.812;2023-05-07T14:54:38;5.35;;;4.82;;
39104;SDS011;46464;51.154;13.812;2023-05-07T14:57:05;6.07;;;5.07;;
39104;SDS011;46464;51.154;13.812;2023-05-07T14:59:33;6.07;;;5.20;;
39104;SDS011;46464;51.154;13.812;2023-05-07T15:01:59;5.13;;;4.50;;
39104;SDS011;46464;51.154;13.812;2023-05-07T15:04:29;8.27;;;5.68;;
39104;SDS011;46464;51.154;13.812;2023-05-07T15:06:56;7.75;;;6.43;;
39104;SDS011;46464;51.154;13.812;2023-05-07T15:09:22;6.38;;;5.78;;
39104;SDS011;46464;51.154;13.812;2023-05-07T15:11:49;6.43;;;5.82;;
39104;SDS011;46464;51.154;13.812;2023-05-07T15:14:15;7.78;;;6.25;;
39104;SDS011;46464;51.154;13.812;2023-05-07T15:16:42;6.10;;;5.50;;
39104;SDS011;46464;51.154;13.812;2023-05-07T15:19:08;7.95;;;6.43;;
39104;SDS011;46464;51.154;13.812;2023-05-07T15:21:35;7.00;;;6.30;;